Time;durP1;ratioP1;P1;durP2;ratioP2;P2;SDS_P1;SDS_P2;PMS_P1;PMS_P2;Temp;Humidity;BMP_temperature;BMP_pressure;BME280_temperature;BME280_humidity;BME280_pressure;Samples;Min_cycle;Max_cycle;Signal;HPM_P1;HPM_P2
2024/01/13 00:00:16;;;;;;;5.43;2.75;;;3.80;92.30;;;;;;5005485;28;20126;-85
2024/01/13 00:02:42;;;;;;;3.58;1.98;;;3.80;92.30;;;;;;5020607;28;20484;-85
2024/01/13 00:05:07;;;;;;;3.25;2.25;;;3.80;92.40;;;;;;5003614;28;20030;-85
2024/01/13 00:07:33;;;;;;;3.08;1.80;;;3.80;92.40;;;;;;5005562;28;20357;-85
2024/01/13 00:09:59;;;;;;;4.90;1.83;;;3.80;92.40;;;;;;5002334;28;20068;-85
2024/01/13 00:12:24;;;;;;;5.90;2.10;;;3.80;92.40;;;;;;5005974;28;20791;-85
2024/01/13 00:14:51;;;;;;;2.30;1.50;;;3.80;92.40;;;;;;5003053;28;20037;-85
2024/01/13 00:17:17;;;;;;;2.70;1.88;;;3.80;92.40;;;;;;5001171;28;20048;-85
2024/01/13 00:19:42;;;;;;;4.85;1.60;;;3.80;92.40;;;;;;5001466;28;20461;-85
2024/01/13 00:22:08;;;;;;;3.22;1.75;;;3.80;92.40;;;;;;5018753;28;20049;-85
2024/01/13 00:24:33;;;;;;;4.68;1.50;;;3.80;92.40;;;;;;5006007;28;20041;-85
2024/01/13 00:26:59;;;;;;;3.53;1.50;;;3.80;92.40;;;;;;4999970;28;20041;-85
2024/01/13 00:29:25;;;;;;;3.50;1.58;;;3.80;92.40;;;;;;5020911;28;20042;-85
2024/01/13 00:31:50;;;;;;;3.03;1.70;;;3.80;92.40;;;;;;5004486;28;20043;-85
2024/01/13 00:34:16;;;;;;;2.90;1.48;;;3.80;92.40;;;;;;5020287;28;20092;-85
2024/01/13 00:36:42;;;;;;;2.95;1.70;;;3.90;92.50;;;;;;5022182;28;20044;-85
2024/01/13 00:39:07;;;;;;;2.38;1.58;;;3.90;92.50;;;;;;5005418;28;20038;-85
2024/01/13 00:41:34;;;;;;;3.47;2.15;;;3.90;92.50;;;;;;5017337;28;20038;-85
2024/01/13 00:44:00;;;;;;;3.33;2.00;;;3.90;92.50;;;;;;4998027;28;20036;-85
2024/01/13 00:46:26;;;;;;;3.83;2.22;;;3.80;92.50;;;;;;5002856;28;20046;-85
2024/01/13 00:48:52;;;;;;;2.95;1.90;;;3.90;92.50;;;;;;5020225;28;20042;-85
2024/01/13 00:51:17;;;;;;;3.42;2.03;;;3.90;92.50;;;;;;5024973;28;20047;-84
2024/01/13 00:53:43;;;;;;;3.78;2.28;;;3.90;92.50;;;;;;5003960;28;20034;-84
2024/01/13 00:56:09;;;;;;;3.55;2.50;;;3.90;92.50;;;;;;5000420;28;20042;-84
2024/01/13 00:58:35;;;;;;;3.53;2.60;;;3.90;92.60;;;;;;5021290;28;20045;-85
2024/01/13 01:01:02;;;;;;;5.13;2.92;;;3.90;92.60;;;;;;5019462;28;20037;-85
2024/01/13 01:03:28;;;;;;;4.43;2.83;;;4.10;92.60;;;;;;5003993;28;20041;-85
2024/01/13 01:05:54;;;;;;;4.82;3.15;;;3.90;92.60;;;;;;5024057;28;20373;-85
2024/01/13 01:08:20;;;;;;;5.35;3.30;;;3.90;92.60;;;;;;5021804;28;20297;-85
2024/01/13 01:10:46;;;;;;;4.88;2.60;;;3.90;92.60;;;;;;5008831;28;20045;-85
2024/01/13 01:13:12;;;;;;;5.68;3.78;;;3.90;92.60;;;;;;5005524;28;20037;-85
2024/01/13 01:15:37;;;;;;;5.20;3.58;;;3.90;92.60;;;;;;5006689;28;20040;-85
2024/01/13 01:18:03;;;;;;;5.78;3.60;;;3.90;92.60;;;;;;5007004;28;20139;-85
2024/01/13 01:20:29;;;;;;;6.57;3.83;;;3.90;92.60;;;;;;5007468;28;20026;-85
2024/01/13 01:22:54;;;;;;;5.78;4.10;;;3.90;92.60;;;;;;5007699;28;20033;-85
2024/01/13 01:25:20;;;;;;;5.57;4.35;;;3.90;92.70;;;;;;5022176;28;20457;-85
2024/01/13 01:27:46;;;;;;;7.15;4.28;;;3.90;92.70;;;;;;5025704;28;20396;-85
2024/01/13 01:30:12;;;;;;;6.53;4.50;;;4.00;92.70;;;;;;5003369;28;20087;-85
2024/01/13 01:32:38;;;;;;;7.68;4.40;;;4.00;92.70;;;;;;5008393;28;20041;-85
2024/01/13 01:35:06;;;;;;;5.75;4.32;;;3.90;92.70;;;;;;5016244;28;20041;-84
2024/01/13 01:37:35;;;;;;;7.15;4.50;;;4.00;92.70;;;;;;5023178;28;20049;-84
2024/01/13 01:40:01;;;;;;;6.32;4.07;;;3.90;92.70;;;;;;5024102;28;20041;-84
2024/01/13 01:42:26;;;;;;;6.93;4.78;;;3.90;92.70;;;;;;5021906;28;20045;-84
2024/01/13 01:44:52;;;;;;;9.18;4.40;;;4.00;92.70;;;;;;5008311;28;20140;-84
2024/01/13 01:47:20;;;;;;;7.07;4.93;;;4.00;92.70;;;;;;5021288;28;20049;-84
2024/01/13 01:49:46;;;;;;;6.35;4.70;;;4.00;92.70;;;;;;5024574;28;20048;-84
2024/01/13 01:52:13;;;;;;;7.47;4.68;;;4.00;92.70;;;;;;5022085;28;20224;-84
2024/01/13 01:54:39;;;;;;;5.35;4.13;;;3.90;92.70;;;;;;5010438;28;20038;-84
2024/01/13 01:57:06;;;;;;;7.43;4.43;;;4.00;92.70;;;;;;5006642;28;20105;-84
2024/01/13 01:59:31;;;;;;;6.55;4.60;;;4.00;92.70;;;;;;5005077;28;20064;-84
2024/01/13 02:01:58;;;;;;;6.22;4.40;;;4.00;92.70;;;;;;5024274;28;20408;-84
2024/01/13 02:04:24;;;;;;;6.18;4.43;;;4.00;92.70;;;;;;5021458;28;20129;-84
2024/01/13 02:06:50;;;;;;;6.03;4.65;;;4.00;92.80;;;;;;5021385;28;20111;-84
2024/01/13 02:09:16;;;;;;;6.97;4.40;;;4.00;92.80;;;;;;5007496;28;20505;-84
2024/01/13 02:11:42;;;;;;;7.45;4.70;;;4.00;92.80;;;;;;5022712;28;20103;-84
2024/01/13 02:14:08;;;;;;;8.15;5.32;;;4.00;92.80;;;;;;5022733;28;20500;-84
2024/01/13 02:16:33;;;;;;;7.25;4.80;;;4.00;92.80;;;;;;5022076;28;20481;-84
2024/01/13 02:18:59;;;;;;;7.00;4.32;;;4.00;92.80;;;;;;5026090;28;20041;-84
2024/01/13 02:21:24;;;;;;;6.95;4.80;;;4.00;92.80;;;;;;5018789;28;20537;-84
2024/01/13 02:23:50;;;;;;;6.10;4.60;;;4.00;92.80;;;;;;5023757;28;20045;-84
2024/01/13 02:26:15;;;;;;;6.75;5.05;;;4.00;92.80;;;;;;5005809;28;20124;-83
2024/01/13 02:28:41;;;;;;;7.85;4.95;;;4.00;92.80;;;;;;5005812;28;20092;-84
2024/01/13 02:31:07;;;;;;;7.40;4.72;;;4.00;92.80;;;;;;5005020;28;20045;-84
2024/01/13 02:33:32;;;;;;;8.40;4.55;;;4.00;92.80;;;;;;5005570;28;20038;-84
2024/01/13 02:35:58;;;;;;;7.93;4.68;;;4.00;92.80;;;;;;5020649;28;20485;-84
2024/01/13 02:38:23;;;;;;;7.70;4.57;;;4.00;92.80;;;;;;5023055;28;20046;-84
2024/01/13 02:40:49;;;;;;;6.57;4.28;;;4.00;92.80;;;;;;5006575;28;20042;-84
2024/01/13 02:43:15;;;;;;;6.43;3.78;;;4.00;92.80;;;;;;5022934;28;20037;-84
2024/01/13 02:45:41;;;;;;;6.13;3.95;;;4.00;92.80;;;;;;5020408;28;20053;-84
2024/01/13 02:48:14;;;;;;;5.07;3.53;;;4.00;92.80;;;;;;5023041;28;20507;-83
2024/01/13 02:50:40;;;;;;;6.70;3.63;;;4.00;92.80;;;;;;5021301;28;20076;-83
2024/01/13 02:53:05;;;;;;;5.15;3.60;;;4.10;92.80;;;;;;5007828;28;20316;-83
2024/01/13 02:55:31;;;;;;;6.30;3.65;;;4.10;92.80;;;;;;5018604;28;20041;-83
2024/01/13 02:57:57;;;;;;;7.60;3.47;;;4.00;92.80;;;;;;5000269;28;20038;-83
2024/01/13 03:00:22;;;;;;;5.45;3.20;;;4.10;92.80;;;;;;5006071;28;20041;-83
2024/01/13 03:02:48;;;;;;;4.45;2.60;;;4.00;92.80;;;;;;5006221;28;20099;-83
2024/01/13 03:05:13;;;;;;;5.78;2.88;;;4.00;92.80;;;;;;5009204;28;20096;-83
2024/01/13 03:07:39;;;;;;;7.25;3.08;;;4.40;92.90;;;;;;5018731;28;20045;-83
2024/01/13 03:10:05;;;;;;;4.60;3.17;;;4.10;92.80;;;;;;5009795;28;20033;-83
2024/01/13 03:12:31;;;;;;;5.70;3.30;;;4.10;92.80;;;;;;5023122;28;20045;-84
2024/01/13 03:14:57;;;;;;;6.82;3.65;;;4.10;92.80;;;;;;5021437;28;20045;-84
2024/01/13 03:17:22;;;;;;;5.78;3.08;;;4.10;92.80;;;;;;5021348;28;20048;-84
2024/01/13 03:19:48;;;;;;;4.80;3.38;;;4.10;92.80;;;;;;5021824;28;20034;-84
2024/01/13 03:22:13;;;;;;;7.75;3.38;;;4.10;92.80;;;;;;5020479;28;20386;-84
2024/01/13 03:24:39;;;;;;;4.90;2.75;;;4.10;92.80;;;;;;5008365;28;20062;-84
2024/01/13 03:27:04;;;;;;;5.65;3.60;;;4.10;92.80;;;;;;5021194;28;20030;-84
2024/01/13 03:29:30;;;;;;;5.55;3.60;;;4.10;92.70;;;;;;5009273;28;20049;-83
2024/01/13 03:31:56;;;;;;;6.45;3.72;;;4.10;92.70;;;;;;5026231;28;20052;-83
2024/01/13 03:34:21;;;;;;;6.40;3.97;;;4.10;92.70;;;;;;5010135;28;20041;-83
2024/01/13 03:36:47;;;;;;;6.70;3.80;;;4.10;92.70;;;;;;5019283;28;20061;-83
2024/01/13 03:39:12;;;;;;;8.48;4.05;;;4.10;92.70;;;;;;5008415;28;20037;-83
2024/01/13 03:41:39;;;;;;;6.50;3.72;;;4.10;92.70;;;;;;5023707;28;20030;-83
2024/01/13 03:44:04;;;;;;;5.45;3.53;;;4.10;92.70;;;;;;5007723;28;20045;-83
2024/01/13 03:46:30;;;;;;;6.10;4.25;;;4.10;92.70;;;;;;5023211;28;20049;-83
2024/01/13 03:48:56;;;;;;;7.55;3.90;;;4.10;92.70;;;;;;5025199;28;20416;-83
2024/01/13 03:51:21;;;;;;;5.97;4.22;;;4.10;92.70;;;;;;5008847;28;20034;-83
2024/01/13 03:53:47;;;;;;;8.02;4.43;;;4.10;92.70;;;;;;5007754;28;20030;-83
2024/01/13 03:56:12;;;;;;;9.00;4.40;;;4.00;92.70;;;;;;5008087;28;20089;-83
2024/01/13 03:58:38;;;;;;;5.60;3.53;;;4.10;92.70;;;;;;5026790;28;20037;-83
2024/01/13 04:01:04;;;;;;;5.57;3.72;;;4.10;92.70;;;;;;5009245;28;20034;-83
2024/01/13 04:03:30;;;;;;;7.82;4.40;;;4.10;92.70;;;;;;5024337;28;20091;-83
2024/01/13 04:05:58;;;;;;;8.50;4.10;;;4.00;92.60;;;;;;5017798;28;20069;-83
2024/01/13 04:08:23;;;;;;;7.63;4.45;;;4.10;92.70;;;;;;5005978;28;20069;-83
2024/01/13 04:10:49;;;;;;;6.13;3.85;;;4.10;92.60;;;;;;5018767;28;20442;-83
2024/01/13 04:13:15;;;;;;;9.43;4.70;;;4.10;92.60;;;;;;5021536;28;20079;-83
2024/01/13 04:15:40;;;;;;;7.05;4.53;;;4.10;92.80;;;;;;5001688;28;20042;-83
2024/01/13 04:18:06;;;;;;;7.10;4.32;;;4.10;92.60;;;;;;5001697;28;20045;-83
2024/01/13 04:20:32;;;;;;;6.65;4.30;;;4.10;92.60;;;;;;5005070;28;20064;-83
2024/01/13 04:22:57;;;;;;;6.38;3.80;;;4.70;92.80;;;;;;5018991;28;20084;-83
2024/01/13 04:25:23;;;;;;;5.45;3.80;;;4.10;92.60;;;;;;5006462;28;20357;-83
2024/01/13 04:27:50;;;;;;;7.60;3.90;;;4.10;92.70;;;;;;5020154;28;20323;-83
2024/01/13 04:30:16;;;;;;;6.50;3.42;;;4.10;92.60;;;;;;5021378;28;20116;-83
2024/01/13 04:32:42;;;;;;;6.22;3.80;;;4.00;92.60;;;;;;5024403;28;20590;-83
2024/01/13 04:35:08;;;;;;;6.75;3.80;;;4.00;92.60;;;;;;5019779;28;20432;-83
2024/01/13 04:37:34;;;;;;;5.25;3.38;;;4.10;92.70;;;;;;5006249;28;20033;-83
2024/01/13 04:39:59;;;;;;;8.35;3.70;;;4.10;92.70;;;;;;5016900;28;20034;-83
2024/01/13 04:42:25;;;;;;;6.53;3.20;;;4.10;92.70;;;;;;5023375;28;20045;-83
2024/01/13 04:44:51;;;;;;;4.97;3.00;;;4.10;92.60;;;;;;5020381;28;20080;-83
2024/01/13 04:47:16;;;;;;;5.88;2.80;;;4.10;92.70;;;;;;5021152;28;20037;-83
2024/01/13 04:49:42;;;;;;;6.07;2.60;;;4.10;92.60;;;;;;5005154;28;20049;-83
2024/01/13 04:52:08;;;;;;;5.82;2.75;;;4.10;92.70;;;;;;5019923;28;20029;-83
2024/01/13 04:54:33;;;;;;;4.60;2.58;;;4.10;92.60;;;;;;5006347;28;20045;-83
2024/01/13 04:57:00;;;;;;;5.65;2.30;;;4.50;92.70;;;;;;5000120;28;20069;-83
2024/01/13 04:59:26;;;;;;;4.97;2.20;;;4.10;92.60;;;;;;5022192;28;20072;-83
2024/01/13 05:01:52;;;;;;;5.93;2.60;;;4.10;92.60;;;;;;5003887;28;20038;-83
2024/01/13 05:04:17;;;;;;;6.00;2.60;;;4.10;92.60;;;;;;4999700;28;20091;-83
2024/01/13 05:06:43;;;;;;;5.90;2.47;;;4.10;92.60;;;;;;5021955;28;20396;-83
2024/01/13 05:09:09;;;;;;;4.07;1.80;;;4.10;92.60;;;;;;5021879;28;20033;-83
2024/01/13 05:11:34;;;;;;;3.75;2.13;;;4.00;92.60;;;;;;5007341;28;20528;-83
2024/01/13 05:14:00;;;;;;;4.05;1.98;;;4.10;92.60;;;;;;5005024;28;20062;-83
2024/01/13 05:16:25;;;;;;;3.53;1.90;;;4.00;92.60;;;;;;5020215;28;20041;-83
2024/01/13 05:18:51;;;;;;;5.70;1.80;;;4.10;92.60;;;;;;5023783;28;20052;-83
2024/01/13 05:21:17;;;;;;;3.83;1.52;;;4.00;92.60;;;;;;5021791;28;20037;-83
2024/01/13 05:23:42;;;;;;;3.05;1.30;;;4.10;92.60;;;;;;5024341;28;20117;-83
2024/01/13 05:26:08;;;;;;;3.97;1.70;;;4.10;92.60;;;;;;5018187;28;20030;-83
2024/01/13 05:28:33;;;;;;;2.38;1.40;;;4.10;92.50;;;;;;5007518;28;20029;-83
2024/01/13 05:30:59;;;;;;;6.95;2.05;;;4.10;92.50;;;;;;5021201;28;20451;-83
2024/01/13 05:33:24;;;;;;;3.67;1.35;;;4.00;92.50;;;;;;5021591;28;20038;-83
2024/01/13 05:35:50;;;;;;;2.95;1.00;;;4.10;92.50;;;;;;5021950;28;20139;-83
2024/01/13 05:38:17;;;;;;;4.82;1.85;;;4.10;92.50;;;;;;5003242;28;20049;-83
2024/01/13 05:40:44;;;;;;;4.45;1.60;;;4.00;92.50;;;;;;5029915;28;20056;-83
2024/01/13 05:43:10;;;;;;;2.83;1.27;;;4.00;92.50;;;;;;4998622;28;20121;-83
2024/01/13 05:45:35;;;;;;;3.20;1.38;;;4.40;92.60;;;;;;5019709;28;20046;-83
2024/01/13 05:48:01;;;;;;;4.90;1.73;;;4.00;92.50;;;;;;5019556;28;20093;-84
2024/01/13 05:50:27;;;;;;;2.63;1.40;;;4.00;92.50;;;;;;5003176;28;20408;-84
2024/01/13 05:52:53;;;;;;;4.32;1.58;;;4.00;92.50;;;;;;5015662;28;20077;-84
2024/01/13 05:55:18;;;;;;;4.57;1.88;;;4.00;92.50;;;;;;5003609;28;21144;-84
2024/01/13 05:57:44;;;;;;;4.13;2.38;;;4.00;92.50;;;;;;5004812;28;20037;-84
2024/01/13 06:00:10;;;;;;;4.72;2.20;;;4.00;92.50;;;;;;5003064;28;20030;-84
2024/01/13 06:02:35;;;;;;;5.75;2.78;;;4.00;92.50;;;;;;5022514;28;20464;-84
2024/01/13 06:05:01;;;;;;;4.82;2.67;;;4.00;92.50;;;;;;5006890;28;20048;-84
2024/01/13 06:07:27;;;;;;;9.15;3.47;;;4.00;92.50;;;;;;5004440;28;20025;-84
2024/01/13 06:09:52;;;;;;;5.35;3.67;;;4.00;92.50;;;;;;5025835;28;20464;-84
2024/01/13 06:12:18;;;;;;;4.97;2.80;;;4.00;92.50;;;;;;5021851;28;20044;-84
2024/01/13 06:14:43;;;;;;;5.07;2.70;;;4.00;92.60;;;;;;5008413;28;20428;-84
2024/01/13 06:17:09;;;;;;;5.20;3.17;;;4.00;92.60;;;;;;5005004;28;20124;-84
2024/01/13 06:19:35;;;;;;;5.25;2.80;;;4.00;92.60;;;;;;5024380;28;20037;-84
2024/01/13 06:22:01;;;;;;;6.60;3.08;;;4.00;92.60;;;;;;5003971;28;20042;-84
2024/01/13 06:24:27;;;;;;;5.80;3.17;;;4.00;92.60;;;;;;5013224;28;20038;-84
2024/01/13 06:26:52;;;;;;;6.05;3.20;;;4.00;92.60;;;;;;4994043;28;20038;-84
2024/01/13 06:29:18;;;;;;;6.15;3.30;;;4.00;92.60;;;;;;5024671;28;20037;-84
2024/01/13 06:31:43;;;;;;;5.10;3.40;;;4.00;92.60;;;;;;5005576;28;20587;-84
2024/01/13 06:34:10;;;;;;;5.47;3.45;;;4.00;92.70;;;;;;5022724;28;20507;-84
2024/01/13 06:36:35;;;;;;;5.53;3.08;;;4.00;92.70;;;;;;5006279;28;20041;-84
2024/01/13 06:39:01;;;;;;;5.88;3.10;;;4.00;92.70;;;;;;5021611;28;20037;-84
2024/01/13 06:41:27;;;;;;;5.28;3.17;;;4.00;92.70;;;;;;5007883;28;20069;-84
2024/01/13 06:43:52;;;;;;;5.13;3.17;;;4.30;92.80;;;;;;5020614;28;20025;-84
2024/01/13 06:46:18;;;;;;;5.40;3.03;;;4.00;92.70;;;;;;5023018;28;20192;-84
2024/01/13 06:48:45;;;;;;;5.68;3.53;;;4.00;92.70;;;;;;5005586;28;20060;-84
2024/01/13 06:51:11;;;;;;;6.35;3.03;;;4.00;92.70;;;;;;5005781;28;20069;-84
2024/01/13 06:53:36;;;;;;;5.50;2.90;;;4.00;92.70;;;;;;5006513;28;20471;-84
2024/01/13 06:56:03;;;;;;;3.97;2.58;;;4.00;92.70;;;;;;5004622;28;20393;-84
2024/01/13 06:58:28;;;;;;;4.32;3.03;;;4.00;92.70;;;;;;5019865;28;20057;-84
2024/01/13 07:00:54;;;;;;;4.85;2.80;;;4.00;92.70;;;;;;5020755;28;20034;-84
2024/01/13 07:03:19;;;;;;;5.10;2.58;;;4.10;92.80;;;;;;5006112;28;20435;-84
2024/01/13 07:05:45;;;;;;;3.90;2.53;;;4.00;92.70;;;;;;5005022;28;20033;-84
2024/01/13 07:08:11;;;;;;;4.18;2.55;;;4.10;92.80;;;;;;5021431;28;20026;-84
2024/01/13 07:10:36;;;;;;;5.43;2.72;;;4.00;92.80;;;;;;5006769;28;20046;-84
2024/01/13 07:13:02;;;;;;;4.03;2.38;;;4.10;92.80;;;;;;5003712;28;20051;-84
2024/01/13 07:15:28;;;;;;;4.03;2.30;;;4.10;92.80;;;;;;5004033;28;20049;-84
2024/01/13 07:17:53;;;;;;;3.10;1.92;;;4.10;92.80;;;;;;5020958;28;20132;-84
2024/01/13 07:20:19;;;;;;;3.58;2.20;;;4.10;92.80;;;;;;5022924;28;20323;-84
2024/01/13 07:22:44;;;;;;;3.35;2.08;;;4.10;92.80;;;;;;5010525;28;20448;-84
2024/01/13 07:25:10;;;;;;;4.25;2.75;;;4.10;92.80;;;;;;5018249;28;20037;-84
2024/01/13 07:27:35;;;;;;;4.60;2.42;;;4.10;92.80;;;;;;5007506;28;20064;-84
2024/01/13 07:30:04;;;;;;;3.60;2.00;;;4.10;92.80;;;;;;5021767;28;20041;-84
2024/01/13 07:32:29;;;;;;;3.42;2.33;;;4.10;92.80;;;;;;5004513;28;20065;-84
2024/01/13 07:34:55;;;;;;;3.25;2.20;;;4.10;93.00;;;;;;5022636;28;20382;-84
2024/01/13 07:37:21;;;;;;;2.90;1.90;;;4.10;92.90;;;;;;5006858;28;20512;-84
2024/01/13 07:39:46;;;;;;;4.38;2.15;;;4.10;92.90;;;;;;5007531;28;20179;-84
2024/01/13 07:42:12;;;;;;;3.10;1.83;;;4.10;92.90;;;;;;5005932;28;20055;-85
2024/01/13 07:44:37;;;;;;;3.83;1.85;;;4.10;92.90;;;;;;5008542;28;20477;-85
2024/01/13 07:47:03;;;;;;;3.45;2.10;;;4.10;92.90;;;;;;5022525;28;20041;-84
2024/01/13 07:49:30;;;;;;;3.15;2.25;;;4.10;92.90;;;;;;5025858;28;20048;-85
2024/01/13 07:51:56;;;;;;;4.43;2.30;;;4.10;92.90;;;;;;5008243;28;20037;-84
2024/01/13 07:54:23;;;;;;;3.83;2.40;;;4.10;92.90;;;;;;5006366;28;20084;-85
2024/01/13 07:56:49;;;;;;;4.75;2.30;;;4.10;92.90;;;;;;5024332;28;20053;-85
2024/01/13 07:59:16;;;;;;;3.72;2.30;;;4.10;92.90;;;;;;5003517;28;20599;-85
2024/01/13 08:01:42;;;;;;;6.03;2.88;;;4.10;92.90;;;;;;5022621;28;20072;-85
2024/01/13 08:04:07;;;;;;;6.05;2.95;;;4.10;92.90;;;;;;5018982;28;20069;-85
2024/01/13 08:06:34;;;;;;;6.80;3.03;;;4.10;92.90;;;;;;5005264;28;20030;-85
2024/01/13 08:09:00;;;;;;;4.82;3.42;;;4.10;92.90;;;;;;5002397;28;20041;-85
2024/01/13 08:11:25;;;;;;;5.82;3.38;;;4.10;92.90;;;;;;5004065;28;20111;-85
2024/01/13 08:13:51;;;;;;;9.75;5.13;;;4.20;92.90;;;;;;5021122;28;20033;-84
2024/01/13 08:16:16;;;;;;;9.18;4.30;;;4.10;92.90;;;;;;5002669;28;20045;-84
2024/01/13 08:18:42;;;;;;;9.15;4.75;;;4.20;92.90;;;;;;5015590;28;20056;-84
2024/01/13 08:21:08;;;;;;;10.93;6.15;;;4.20;92.90;;;;;;5003180;28;20056;-84
2024/01/13 08:23:34;;;;;;;9.80;6.30;;;4.20;92.90;;;;;;5018098;28;20050;-84
2024/01/13 08:26:00;;;;;;;14.23;7.25;;;4.20;92.90;;;;;;5021744;28;20034;-84
2024/01/13 08:28:26;;;;;;;15.73;9.05;;;4.20;92.90;;;;;;5023606;28;20046;-84
2024/01/13 08:30:52;;;;;;;14.10;8.15;;;4.20;92.90;;;;;;5017057;28;20044;-84
2024/01/13 08:33:17;;;;;;;16.25;9.00;;;4.20;92.90;;;;;;5008798;28;20547;-84
2024/01/13 08:35:44;;;;;;;18.92;10.23;;;4.20;92.90;;;;;;5001280;28;20045;-84
2024/01/13 08:38:09;;;;;;;24.95;12.18;;;4.20;92.90;;;;;;5021398;28;20033;-84
2024/01/13 08:40:35;;;;;;;25.45;12.57;;;4.20;92.90;;;;;;5004344;28;20099;-84
2024/01/13 08:43:02;;;;;;;28.20;15.10;;;4.20;92.90;;;;;;5021481;28;20050;-84
2024/01/13 08:45:31;;;;;;;25.00;13.70;;;4.20;92.90;;;;;;5024125;28;20068;-84
2024/01/13 08:47:57;;;;;;;29.80;16.95;;;4.20;92.90;;;;;;5033390;28;20037;-84
2024/01/13 08:50:23;;;;;;;27.73;16.25;;;4.50;93.00;;;;;;5002454;28;20040;-84
2024/01/13 08:52:52;;;;;;;33.35;19.20;;;4.30;92.90;;;;;;5002061;28;20042;-84
2024/01/13 08:55:18;;;;;;;32.30;18.67;;;4.20;92.90;;;;;;5019625;28;20065;-84
2024/01/13 08:57:44;;;;;;;39.03;20.05;;;4.30;92.90;;;;;;5021128;28;20446;-84
2024/01/13 09:00:10;;;;;;;36.35;20.48;;;4.20;92.80;;;;;;5020033;28;20061;-84
2024/01/13 09:02:36;;;;;;;34.67;19.15;;;4.30;92.80;;;;;;5019935;28;20145;-84
2024/01/13 09:05:01;;;;;;;35.85;20.13;;;4.20;92.80;;;;;;5002460;28;20041;-84
2024/01/13 09:07:27;;;;;;;38.03;22.10;;;4.20;92.80;;;;;;5012268;28;20038;-85
2024/01/13 09:09:53;;;;;;;43.55;22.15;;;4.20;92.80;;;;;;5005330;28;20117;-85
2024/01/13 09:12:18;;;;;;;42.42;22.45;;;4.30;92.80;;;;;;5002417;28;20492;-85
2024/01/13 09:14:45;;;;;;;48.70;25.15;;;4.50;92.90;;;;;;5018523;28;20076;-85
2024/01/13 09:17:11;;;;;;;41.80;22.63;;;4.30;92.80;;;;;;5004798;28;20093;-84
2024/01/13 09:19:37;;;;;;;43.95;24.70;;;4.30;92.80;;;;;;5005040;28;20411;-84
2024/01/13 09:22:03;;;;;;;52.38;27.80;;;4.30;92.80;;;;;;5005792;28;20033;-85
2024/01/13 09:24:29;;;;;;;47.70;26.63;;;4.30;92.70;;;;;;5001383;28;20034;-84
2024/01/13 09:26:55;;;;;;;52.47;28.80;;;4.30;92.70;;;;;;5022465;28;20045;-85
2024/01/13 09:29:21;;;;;;;49.40;27.10;;;4.30;92.70;;;;;;5007254;28;20033;-85
2024/01/13 09:31:47;;;;;;;48.00;27.58;;;4.30;92.70;;;;;;5007238;28;20124;-85
2024/01/13 09:34:14;;;;;;;50.55;28.27;;;4.30;92.70;;;;;;5008608;28;20663;-85
2024/01/13 09:36:41;;;;;;;50.42;28.83;;;4.70;92.80;;;;;;5005005;28;20068;-85
2024/01/13 09:39:11;;;;;;;57.35;29.63;;;4.30;92.60;;;;;;5009355;28;20048;-85
2024/01/13 09:41:37;;;;;;;54.00;31.17;;;4.30;92.60;;;;;;5005989;28;20038;-85
2024/01/13 09:44:14;;;;;;;57.08;31.33;;;4.30;92.60;;;;;;5008972;28;20044;-85
2024/01/13 09:46:40;;;;;;;52.40;29.42;;;4.30;92.60;;;;;;5023717;28;20061;-85
2024/01/13 09:49:12;;;;;;;51.40;30.98;;;4.30;92.70;;;;;;5023475;28;20042;-85
2024/01/13 09:51:38;;;;;;;53.03;30.77;;;4.30;92.50;;;;;;5018975;28;20041;-85
2024/01/13 09:54:11;;;;;;;53.90;31.45;;;4.30;92.50;;;;;;5002936;28;20053;-85
2024/01/13 09:56:44;;;;;;;53.25;31.02;;;4.30;92.50;;;;;;5005234;28;20038;-85
2024/01/13 09:59:11;;;;;;;51.65;31.38;;;4.30;92.50;;;;;;4996957;28;20045;-85
2024/01/13 10:01:36;;;;;;;50.55;30.90;;;4.30;92.50;;;;;;5023089;28;20045;-85
2024/01/13 10:04:02;;;;;;;53.00;32.45;;;4.30;92.40;;;;;;5008834;28;20034;-85
2024/01/13 10:06:31;;;;;;;53.25;33.13;;;4.40;92.40;;;;;;5007698;28;20488;-85
2024/01/13 10:08:57;;;;;;;56.58;33.10;;;4.40;92.40;;;;;;5024638;28;20381;-85
2024/01/13 10:11:22;;;;;;;54.00;33.03;;;4.40;92.40;;;;;;5007288;28;20041;-85
2024/01/13 10:14:01;;;;;;;58.58;34.55;;;4.40;92.40;;;;;;5005002;28;20393;-84
2024/01/13 10:16:29;;;;;;;58.22;35.17;;;4.40;92.40;;;;;;5023286;28;20433;-85
2024/01/13 10:18:55;;;;;;;57.08;34.40;;;4.40;92.40;;;;;;5006156;28;20485;-85
2024/01/13 10:21:23;;;;;;;57.65;35.42;;;4.50;92.40;;;;;;5007175;28;20078;-85
2024/01/13 10:23:49;;;;;;;59.63;35.20;;;4.40;92.30;;;;;;5021242;28;20050;-85
2024/01/13 10:26:15;;;;;;;60.20;35.42;;;4.40;92.30;;;;;;5007997;28;20037;-85
2024/01/13 10:28:41;;;;;;;55.47;34.13;;;4.50;92.30;;;;;;5021050;28;20034;-85
2024/01/13 10:31:06;;;;;;;53.00;33.47;;;4.50;92.30;;;;;;5023441;28;20044;-85
2024/01/13 10:33:32;;;;;;;55.92;32.20;;;4.50;92.30;;;;;;5039752;28;20045;-85
2024/01/13 10:35:58;;;;;;;50.53;32.47;;;4.50;92.20;;;;;;5021238;28;20125;-85
2024/01/13 10:38:23;;;;;;;50.72;31.67;;;4.50;92.20;;;;;;5023166;28;20045;-85
2024/01/13 10:40:49;;;;;;;54.35;31.95;;;4.50;92.20;;;;;;5025759;28;20037;-85
2024/01/13 10:43:18;;;;;;;48.22;31.52;;;4.60;92.20;;;;;;5020499;28;20481;-85
2024/01/13 10:45:49;;;;;;;52.05;32.35;;;4.60;92.20;;;;;;5025053;28;20061;-85
2024/01/13 10:48:45;;;;;;;51.10;31.35;;;4.60;92.20;;;;;;5021021;28;20033;-85
2024/01/13 10:51:42;;;;;;;53.47;31.00;;;4.60;92.20;;;;;;5020523;28;20084;-85
2024/01/13 10:54:08;;;;;;;47.10;28.20;;;4.60;92.20;;;;;;5003960;28;20037;-85
2024/01/13 10:56:37;;;;;;;51.78;31.77;;;4.60;92.10;;;;;;5021816;28;20034;-85
2024/01/13 10:59:04;;;;;;;51.83;31.25;;;4.60;92.10;;;;;;5006713;28;20116;-85
2024/01/13 11:01:30;;;;;;;45.63;30.50;;;4.60;92.10;;;;;;5020981;28;20144;-85
2024/01/13 11:03:57;;;;;;;47.92;29.20;;;4.70;92.10;;;;;;5006384;28;20040;-85
2024/01/13 11:06:23;;;;;;;50.08;30.70;;;4.60;92.00;;;;;;5006853;28;20046;-85
2024/01/13 11:08:50;;;;;;;47.08;30.73;;;4.70;92.00;;;;;;5030364;28;20029;-85
2024/01/13 11:11:24;;;;;;;49.78;31.65;;;4.70;92.00;;;;;;5025240;28;20037;-85
2024/01/13 11:13:56;;;;;;;;;;;4.70;92.00;;;;;;5015269;28;20044;-85
2024/01/13 11:16:24;;;;;;;49.95;29.58;;;4.70;91.80;;;;;;5022049;28;19913;-85
2024/01/13 11:18:52;;;;;;;45.85;29.13;;;4.70;92.00;;;;;;5021042;28;20049;-85
2024/01/13 11:21:19;;;;;;;45.45;28.90;;;4.70;91.90;;;;;;5022538;28;20377;-85
2024/01/13 11:23:54;;;;;;;43.83;27.52;;;4.70;91.90;;;;;;5004627;28;20489;-85
2024/01/13 11:26:21;;;;;;;;;;;4.80;92.00;;;;;;5006520;28;20053;-85
2024/01/13 11:28:52;;;;;;;45.67;27.25;;;4.70;91.80;;;;;;5005380;28;20378;-85
2024/01/13 11:31:40;;;;;;;45.58;27.42;;;4.70;91.90;;;;;;5004536;28;20038;-85
2024/01/13 11:34:08;;;;;;;44.78;25.63;;;4.70;91.90;;;;;;5006864;28;20107;-85
2024/01/13 11:36:35;;;;;;;38.50;24.38;;;4.80;91.90;;;;;;5006724;28;20174;-85
2024/01/13 11:39:03;;;;;;;38.55;25.25;;;4.80;91.90;;;;;;5007727;28;20033;-85
2024/01/13 11:41:41;;;;;;;37.65;24.52;;;4.80;91.90;;;;;;5006596;28;20136;-85
2024/01/13 11:44:09;;;;;;;36.53;23.00;;;4.80;91.90;;;;;;5015603;28;20544;-85
2024/01/13 11:46:38;;;;;;;37.60;23.65;;;4.80;91.90;;;;;;5006885;28;20080;-85
2024/01/13 11:49:07;;;;;;;35.33;21.55;;;4.80;91.90;;;;;;5002262;28;20033;-85
2024/01/13 11:52:02;;;;;;;32.92;22.58;;;4.80;91.90;;;;;;5005780;28;20075;-85
2024/01/13 11:54:29;;;;;;;29.40;20.45;;;4.90;91.90;;;;;;4999410;28;20128;-85
2024/01/13 11:57:00;;;;;;;37.25;22.13;;;4.90;92.10;;;;;;5001744;28;20348;-85
2024/01/13 11:59:26;;;;;;;33.83;22.23;;;4.90;91.90;;;;;;5021312;28;20042;-85
2024/01/13 12:01:53;;;;;;;38.17;22.05;;;4.90;91.90;;;;;;5021126;28;20049;-85
2024/01/13 12:04:19;;;;;;;33.90;21.42;;;4.90;91.90;;;;;;5005430;28;20030;-85
2024/01/13 12:06:50;;;;;;;39.92;22.77;;;4.90;91.90;;;;;;5019224;28;20507;-85
2024/01/13 12:09:18;;;;;;;36.85;21.63;;;5.00;91.90;;;;;;5005827;28;20029;-85
2024/01/13 12:11:53;;;;;;;36.60;21.75;;;5.00;91.90;;;;;;5017099;28;20046;-85
2024/01/13 12:14:22;;;;;;;36.10;21.73;;;5.00;91.90;;;;;;5005783;28;20033;-85
2024/01/13 12:16:48;;;;;;;33.90;21.60;;;5.00;91.90;;;;;;5003567;28;20049;-85
2024/01/13 12:19:14;;;;;;;41.45;22.08;;;5.00;91.90;;;;;;5023230;28;20235;-85
2024/01/13 12:21:40;;;;;;;31.90;20.38;;;5.00;91.90;;;;;;5019210;28;20029;-85
2024/01/13 12:24:06;;;;;;;37.30;20.80;;;5.00;91.80;;;;;;5006113;28;20044;-85
2024/01/13 12:26:31;;;;;;;34.38;21.55;;;5.00;91.80;;;;;;5002720;28;20034;-85
2024/01/13 12:28:59;;;;;;;30.55;19.95;;;5.10;91.80;;;;;;5021396;28;20033;-85
2024/01/13 12:31:25;;;;;;;32.70;19.88;;;5.10;91.80;;;;;;5024017;28;20088;-85
2024/01/13 12:33:51;;;;;;;30.65;19.55;;;5.10;91.80;;;;;;5007718;28;20049;-85
2024/01/13 12:36:16;;;;;;;31.85;20.23;;;5.10;91.80;;;;;;5002945;28;20042;-85
2024/01/13 12:38:42;;;;;;;28.45;19.02;;;5.10;91.80;;;;;;5002567;28;20081;-85
2024/01/13 12:41:08;;;;;;;31.67;20.20;;;5.10;91.80;;;;;;5000300;28;20042;-85
2024/01/13 12:43:33;;;;;;;27.38;18.02;;;5.10;91.80;;;;;;5001579;28;20045;-85
2024/01/13 12:45:59;;;;;;;29.02;19.00;;;5.20;91.80;;;;;;5004745;28;20491;-85